createdAt,value
2022-08-08T00:00:53.876Z,55.35
2022-08-08T00:03:19.782Z,55.62
2022-08-08T00:06:03.956Z,55.76
2022-08-08T00:08:50.788Z,55.80
2022-08-08T00:11:46.150Z,55.93
2022-08-08T00:15:00.028Z,56.07
2022-08-08T00:18:02.605Z,56.07
2022-08-08T00:20:37.188Z,56.30
2022-08-08T00:23:09.903Z,56.21
2022-08-08T00:25:46.342Z,56.37
2022-08-08T00:28:35.665Z,56.44
2022-08-08T00:32:28.513Z,56.45
2022-08-08T00:34:59.765Z,56.66
2022-08-08T00:37:48.345Z,56.77
2022-08-08T00:41:10.465Z,56.95
2022-08-08T00:43:56.341Z,57.01
2022-08-08T00:46:57.820Z,57.06
2022-08-08T00:50:03.851Z,57.29
2022-08-08T00:53:03.099Z,57.30
2022-08-08T00:55:55.870Z,57.24
2022-08-08T00:58:54.705Z,57.36
2022-08-08T01:01:44.165Z,57.57
2022-08-08T01:04:49.533Z,57.64
2022-08-08T01:07:56.211Z,57.70
2022-08-08T01:10:42.144Z,57.74
2022-08-08T01:13:52.940Z,57.76
2022-08-08T01:17:01.623Z,57.90
2022-08-08T01:20:02.680Z,58.01
2022-08-08T01:22:59.733Z,58.08
2022-08-08T01:25:43.502Z,58.09
2022-08-08T01:28:38.994Z,58.31
2022-08-08T01:32:15.602Z,58.31
2022-08-08T01:35:12.917Z,58.33
2022-08-08T01:38:16.537Z,58.46
2022-08-08T01:40:54.096Z,58.55
2022-08-08T01:43:34.670Z,58.68
2022-08-08T01:46:27.192Z,58.70
2022-08-08T01:49:31.107Z,58.78
2022-08-08T01:52:57.410Z,58.93
2022-08-08T01:56:29.261Z,59.03
2022-08-08T01:58:32.260Z,59.14
2022-08-08T02:01:28.133Z,59.28
2022-08-08T02:05:04.273Z,59.40
2022-08-08T02:07:49.660Z,59.62
2022-08-08T02:10:37.083Z,59.55
2022-08-08T02:13:54.120Z,59.61
2022-08-08T02:16:34.141Z,59.62
2022-08-08T02:19:41.560Z,59.69
2022-08-08T02:22:31.335Z,59.79
2022-08-08T02:25:22.800Z,59.81
2022-08-08T02:28:05.991Z,59.88
2022-08-08T02:31:24.568Z,60.16
2022-08-08T02:34:33.166Z,60.28
2022-08-08T02:37:52.196Z,60.36
2022-08-08T02:40:25.821Z,60.62
2022-08-08T02:44:38.904Z,60.84
2022-08-08T02:46:24.201Z,60.95
2022-08-08T02:49:13.375Z,61.08
2022-08-08T02:52:00.381Z,61.18
2022-08-08T02:55:05.780Z,61.19
2022-08-08T02:58:19.972Z,61.35
2022-08-08T03:01:24.857Z,61.37
2022-08-08T03:05:04.335Z,61.40
2022-08-08T03:06:49.837Z,61.44
2022-08-08T03:09:54.888Z,61.38
2022-08-08T03:13:01.728Z,61.57
2022-08-08T03:16:05.571Z,61.64
2022-08-08T03:19:13.931Z,61.72
2022-08-08T03:21:58.210Z,61.55
2022-08-08T03:24:28.939Z,61.69
2022-08-08T03:27:12.524Z,61.82
2022-08-08T03:29:54.706Z,61.85
2022-08-08T03:32:56.913Z,61.97
2022-08-08T03:35:30.322Z,62.18
2022-08-08T03:38:58.299Z,62.22
2022-08-08T03:40:52.189Z,62.33
2022-08-08T03:43:20.595Z,62.34
2022-08-08T03:46:05.443Z,62.61
2022-08-08T03:49:08.861Z,62.55
2022-08-08T03:51:40.412Z,62.75
2022-08-08T03:54:09.418Z,62.69
2022-08-08T03:56:36.998Z,62.66
2022-08-08T03:59:04.114Z,62.77
2022-08-08T04:02:02.397Z,62.74
2022-08-08T04:04:30.566Z,62.94
2022-08-08T04:07:00.914Z,63.09
2022-08-08T04:09:59.869Z,63.22
2022-08-08T04:12:17.983Z,63.18
2022-08-08T04:14:46.507Z,63.09
2022-08-08T04:17:45.839Z,63.06
2022-08-08T04:20:05.509Z,63.10
2022-08-08T04:22:38.944Z,63.09
2022-08-08T04:25:07.453Z,62.96
2022-08-08T04:28:01.614Z,62.85
2022-08-08T04:30:27.719Z,62.55
2022-08-08T04:32:55.338Z,62.38
2022-08-08T04:35:26.592Z,62.31
2022-08-08T04:37:56.564Z,62.00
2022-08-08T04:40:38.176Z,61.42
2022-08-08T04:43:05.566Z,61.18
2022-08-08T04:45:39.253Z,60.75
2022-08-08T04:48:09.049Z,60.52
2022-08-08T04:50:38.922Z,59.85
2022-08-08T04:54:36.619Z,59.49
2022-08-08T04:56:06.342Z,59.48
2022-08-08T04:58:34.493Z,59.20
2022-08-08T05:01:09.151Z,58.93
2022-08-08T05:04:09.362Z,58.61
2022-08-08T05:06:39.184Z,58.04
2022-08-08T05:09:07.270Z,57.73
2022-08-08T05:11:40.614Z,57.36
2022-08-08T05:14:12.038Z,57.05
2022-08-08T05:16:55.641Z,56.61
2022-08-08T05:20:09.692Z,56.39
2022-08-08T05:22:18.141Z,56.30
2022-08-08T05:24:50.015Z,56.15
2022-08-08T05:27:19.624Z,55.82
2022-08-08T05:29:51.755Z,55.55
2022-08-08T05:32:19.577Z,55.28
2022-08-08T05:34:53.332Z,55.03
2022-08-08T05:37:39.117Z,54.60
2022-08-08T05:40:16.579Z,54.27
2022-08-08T05:42:49.295Z,53.90
2022-08-08T05:45:25.227Z,53.74
2022-08-08T05:48:08.554Z,53.36
2022-08-08T05:50:38.975Z,53.25
2022-08-08T05:53:54.550Z,53.02
2022-08-08T05:56:09.676Z,52.67
2022-08-08T05:58:57.756Z,52.34
2022-08-08T06:01:56.142Z,52.17
2022-08-08T06:04:25.183Z,52.05
2022-08-08T06:07:01.583Z,51.84
2022-08-08T06:10:00.402Z,51.73
2022-08-08T06:12:29.625Z,51.23
2022-08-08T06:15:06.570Z,51.00
2022-08-08T06:18:18.154Z,50.75
2022-08-08T06:20:27.290Z,50.43
2022-08-08T06:22:56.378Z,50.39
2022-08-08T06:26:34.754Z,49.85
2022-08-08T06:28:41.204Z,49.65
2022-08-08T06:31:15.661Z,49.14
2022-08-08T06:34:25.688Z,49.12
2022-08-08T06:36:53.314Z,48.54
2022-08-08T06:39:22.101Z,48.39
2022-08-08T06:41:54.322Z,47.92
2022-08-08T06:44:25.383Z,47.57
2022-08-08T06:46:56.048Z,47.56
2022-08-08T06:49:56.421Z,47.42
2022-08-08T06:52:10.378Z,47.25
2022-08-08T06:54:48.921Z,47.14
2022-08-08T06:57:16.022Z,47.38
2022-08-08T07:00:01.674Z,46.94
2022-08-08T07:02:34.277Z,46.36
2022-08-08T07:05:11.714Z,46.84
2022-08-08T07:07:49.456Z,46.66
2022-08-08T07:10:23.689Z,46.65
2022-08-08T07:13:00.962Z,46.64
2022-08-08T07:16:04.736Z,46.39
2022-08-08T07:18:46.056Z,46.60
2022-08-08T07:21:22.550Z,46.52
2022-08-08T07:24:09.863Z,46.45
2022-08-08T07:26:55.384Z,45.48
2022-08-08T07:30:02.020Z,45.98
2022-08-08T07:32:15.630Z,46.30
2022-08-08T07:34:59.427Z,46.31
2022-08-08T07:37:55.445Z,46.13
2022-08-08T07:40:29.737Z,45.67
2022-08-08T07:43:14.782Z,45.69
2022-08-08T07:46:17.396Z,45.86
2022-08-08T07:48:39.701Z,45.71
2022-08-08T07:51:24.434Z,46.06
2022-08-08T07:54:26.818Z,46.07
2022-08-08T07:57:28.291Z,46.05
2022-08-08T08:00:05.022Z,45.38
2022-08-08T08:02:59.803Z,45.92
2022-08-08T08:05:33.398Z,45.01
2022-08-08T08:08:02.025Z,45.21
2022-08-08T08:10:35.793Z,45.43
2022-08-08T08:13:25.525Z,45.33
2022-08-08T08:16:18.045Z,45.07
2022-08-08T08:18:56.031Z,44.59
2022-08-08T08:21:44.098Z,45.25
2022-08-08T08:24:20.533Z,45.05
2022-08-08T08:27:02.830Z,44.35
2022-08-08T08:29:30.454Z,44.44
2022-08-08T08:31:59.282Z,44.23
2022-08-08T08:34:32.343Z,44.36
2022-08-08T08:37:08.041Z,44.42
2022-08-08T08:40:01.368Z,44.19
2022-08-08T08:42:32.091Z,43.89
2022-08-08T08:45:21.914Z,43.82
2022-08-08T08:47:54.439Z,43.78
2022-08-08T08:50:32.951Z,43.55
2022-08-08T08:53:55.138Z,43.47
2022-08-08T08:55:56.081Z,43.48
2022-08-08T08:58:43.166Z,43.16
2022-08-08T09:01:19.010Z,43.10
2022-08-08T09:03:51.146Z,42.84
2022-08-08T09:06:34.332Z,42.95
2022-08-08T09:09:35.235Z,42.79
2022-08-08T09:12:26.002Z,42.24
2022-08-08T09:14:57.023Z,42.21
2022-08-08T09:17:40.872Z,42.36
2022-08-08T09:21:59.113Z,42.10
2022-08-08T09:22:59.067Z,41.89
2022-08-08T09:25:36.233Z,41.75
2022-08-08T09:28:35.610Z,41.83
2022-08-08T09:31:13.416Z,41.32
2022-08-08T09:34:15.193Z,41.29
2022-08-08T09:36:35.898Z,41.48
2022-08-08T09:39:10.124Z,41.65
2022-08-08T09:41:54.867Z,41.09
2022-08-08T09:44:48.459Z,40.40
2022-08-08T09:48:02.035Z,40.96
2022-08-08T09:50:14.041Z,41.00
2022-08-08T09:52:57.572Z,40.22
2022-08-08T09:55:51.909Z,40.29
2022-08-08T09:58:27.675Z,40.90
2022-08-08T10:01:59.046Z,40.73
2022-08-08T10:04:38.263Z,40.47
2022-08-08T10:07:07.432Z,40.43
2022-08-08T10:09:59.747Z,40.50
2022-08-08T10:12:52.873Z,40.28
2022-08-08T10:15:22.395Z,39.79
2022-08-08T10:17:56.357Z,39.94
2022-08-08T10:20:51.402Z,39.71
2022-08-08T10:23:44.826Z,39.79
2022-08-08T10:26:29.775Z,39.79
2022-08-08T10:29:06.730Z,39.50
2022-08-08T10:31:55.996Z,38.96
2022-08-08T10:34:24.401Z,38.61
2022-08-08T10:36:55.833Z,39.15
2022-08-08T10:39:55.560Z,38.87
2022-08-08T10:42:34.388Z,38.68
2022-08-08T10:45:08.061Z,38.59
2022-08-08T10:47:43.707Z,38.66
2022-08-08T10:50:15.351Z,38.71
2022-08-08T10:52:43.091Z,38.80
2022-08-08T10:55:15.454Z,38.56
2022-08-08T10:58:03.476Z,38.41
2022-08-08T11:00:39.266Z,38.80
2022-08-08T11:03:37.156Z,38.22
2022-08-08T11:06:12.729Z,38.44
2022-08-08T11:08:50.230Z,37.83
2022-08-08T11:11:59.654Z,37.81
2022-08-08T11:14:15.821Z,37.95
2022-08-08T11:16:46.888Z,37.97
2022-08-08T11:19:17.280Z,38.22
2022-08-08T11:21:54.245Z,38.06
2022-08-08T11:24:26.808Z,37.85
2022-08-08T11:26:57.940Z,38.16
2022-08-08T11:29:41.376Z,37.89
2022-08-08T11:32:17.113Z,37.72
2022-08-08T11:35:08.987Z,37.46
2022-08-08T11:38:37.247Z,37.74
2022-08-08T11:40:26.956Z,37.47
2022-08-08T11:43:00.066Z,37.50
2022-08-08T11:45:29.748Z,37.67
2022-08-08T11:48:05.465Z,37.16
2022-08-08T11:50:37.124Z,36.97
2022-08-08T11:53:06.296Z,37.05
2022-08-08T11:55:35.448Z,36.83
2022-08-08T11:58:14.357Z,36.98
2022-08-08T12:00:47.052Z,37.22
2022-08-08T12:03:30.458Z,36.92
2022-08-08T12:05:58.462Z,36.94
2022-08-08T12:08:35.595Z,36.79
2022-08-08T12:11:09.196Z,36.83
2022-08-08T12:14:02.790Z,36.89
2022-08-08T12:16:30.282Z,36.51
2022-08-08T12:19:00.785Z,36.03
2022-08-08T12:21:59.245Z,35.62
2022-08-08T12:24:27.908Z,35.74
2022-08-08T12:26:57.156Z,36.45
2022-08-08T12:29:42.127Z,36.36
2022-08-08T12:32:19.558Z,36.40
2022-08-08T12:35:13.387Z,36.38
2022-08-08T12:38:01.632Z,36.15
2022-08-08T12:40:56.278Z,36.32
2022-08-08T12:43:46.325Z,36.17
2022-08-08T12:46:25.299Z,36.10
2022-08-08T12:51:50.210Z,35.42
2022-08-08T12:54:25.465Z,34.90
2022-08-08T12:56:53.151Z,35.23
2022-08-08T13:00:04.729Z,35.57
2022-08-08T13:02:42.184Z,35.20
2022-08-08T13:05:27.071Z,35.42
2022-08-08T13:08:20.702Z,35.20
2022-08-08T13:10:56.675Z,35.37
2022-08-08T13:13:34.990Z,35.05
2022-08-08T13:16:21.810Z,35.27
2022-08-08T13:19:01.626Z,35.09
2022-08-08T13:21:53.252Z,34.87
2022-08-08T13:24:42.526Z,34.99
2022-08-08T13:27:20.047Z,35.30
2022-08-08T13:30:26.419Z,34.89
2022-08-08T13:33:00.685Z,34.76
2022-08-08T13:35:40.508Z,34.90
2022-08-08T13:38:13.674Z,34.95
2022-08-08T13:40:45.109Z,35.14
2022-08-08T13:43:16.246Z,34.67
2022-08-08T13:45:47.535Z,35.04
2022-08-08T13:48:17.330Z,34.49
2022-08-08T13:50:56.863Z,34.71
2022-08-08T13:53:33.809Z,34.43
2022-08-08T13:56:06.530Z,34.29
2022-08-08T13:58:57.399Z,34.79
2022-08-08T14:01:42.280Z,34.59
2022-08-08T14:04:21.873Z,34.73
2022-08-08T14:06:48.689Z,34.51
2022-08-08T14:09:24.611Z,34.49
2022-08-08T14:11:59.806Z,34.34
2022-08-08T14:14:42.251Z,34.19
2022-08-08T14:17:22.138Z,34.46
2022-08-08T14:20:06.278Z,34.28
2022-08-08T14:22:38.089Z,34.08
2022-08-08T14:25:15.527Z,34.15
2022-08-08T14:27:59.743Z,34.02
2022-08-08T14:30:33.926Z,33.99
2022-08-08T14:33:01.383Z,34.03
2022-08-08T14:35:35.817Z,34.24
2022-08-08T14:38:34.801Z,34.36
2022-08-08T14:40:59.254Z,34.30
2022-08-08T14:44:02.702Z,34.18
2022-08-08T14:46:30.990Z,34.43
2022-08-08T14:49:09.589Z,34.33
2022-08-08T14:51:53.076Z,34.27
2022-08-08T14:54:29.037Z,34.32
2022-08-08T14:56:58.685Z,34.26
2022-08-08T14:59:50.018Z,34.31
2022-08-08T15:02:22.723Z,34.27
2022-08-08T15:04:53.612Z,34.30
2022-08-08T15:07:24.482Z,34.04
2022-08-08T15:10:05.605Z,34.00
2022-08-08T15:12:36.250Z,34.09
2022-08-08T15:15:06.606Z,33.86
2022-08-08T15:17:36.653Z,34.11
2022-08-08T15:20:10.696Z,34.07
2022-08-08T15:22:44.660Z,34.07
2022-08-08T15:25:18.079Z,34.25
2022-08-08T15:28:03.276Z,34.08
2022-08-08T15:30:32.730Z,34.05
2022-08-08T15:32:59.159Z,34.31
2022-08-08T15:35:27.819Z,34.36
2022-08-08T15:37:56.383Z,34.29
2022-08-08T15:40:23.265Z,34.15
2022-08-08T15:42:55.398Z,33.81
2022-08-08T15:45:22.904Z,33.93
2022-08-08T15:48:04.116Z,33.99
2022-08-08T15:50:58.382Z,34.09
2022-08-08T15:53:27.716Z,34.05
2022-08-08T15:56:01.025Z,33.80
2022-08-08T15:58:28.360Z,33.87
2022-08-08T16:00:58.981Z,34.02
2022-08-08T16:03:25.515Z,34.17
2022-08-08T16:06:01.064Z,33.99
2022-08-08T16:08:28.771Z,34.00
2022-08-08T16:13:09.178Z,33.95
2022-08-08T16:13:45.713Z,34.20
2022-08-08T16:16:17.999Z,34.07
2022-08-08T16:18:56.205Z,34.18
2022-08-08T16:21:31.679Z,34.18
2022-08-08T16:24:05.763Z,34.22
2022-08-08T16:26:36.175Z,34.04
2022-08-08T16:29:16.546Z,34.07
2022-08-08T16:31:49.137Z,33.97
2022-08-08T16:34:20.897Z,34.07
2022-08-08T16:36:51.535Z,34.22
2022-08-08T16:39:59.497Z,34.16
2022-08-08T16:42:07.667Z,34.05
2022-08-08T16:44:53.985Z,34.12
2022-08-08T16:47:40.590Z,34.13
2022-08-08T16:50:14.225Z,34.36
2022-08-08T16:55:01.957Z,34.46
2022-08-08T16:55:55.451Z,34.50
2022-08-08T16:58:29.342Z,34.59
2022-08-08T17:01:06.201Z,34.60
2022-08-08T17:03:58.066Z,34.61
2022-08-08T17:06:36.465Z,34.67
2022-08-08T17:09:06.127Z,34.58
2022-08-08T17:11:38.853Z,34.64
2022-08-08T17:14:18.020Z,34.64
2022-08-08T17:16:57.130Z,34.60
2022-08-08T17:19:26.138Z,34.63
2022-08-08T17:21:53.579Z,34.67
2022-08-08T17:24:27.724Z,34.63
2022-08-08T17:26:54.985Z,34.70
2022-08-08T17:29:25.288Z,34.70
2022-08-08T17:31:52.282Z,34.71
2022-08-08T17:34:48.659Z,34.82
2022-08-08T17:37:06.744Z,34.82
2022-08-08T17:40:04.740Z,35.00
2022-08-08T17:42:31.325Z,35.13
2022-08-08T17:44:59.034Z,35.11
2022-08-08T17:47:37.451Z,35.21
2022-08-08T17:50:05.830Z,35.38
2022-08-08T17:52:34.360Z,35.42
2022-08-08T17:55:05.388Z,35.49
2022-08-08T17:57:36.309Z,35.65
2022-08-08T18:00:13.206Z,35.61
2022-08-08T18:02:52.403Z,35.77
2022-08-08T18:05:43.999Z,35.91
2022-08-08T18:08:37.876Z,36.01
2022-08-08T18:11:15.279Z,36.06
2022-08-08T18:13:44.388Z,36.39
2022-08-08T18:16:20.424Z,36.34
2022-08-08T18:18:56.309Z,36.50
2022-08-08T18:22:00.301Z,36.59
2022-08-08T18:24:21.353Z,36.64
2022-08-08T18:26:54.788Z,36.92
2022-08-08T18:29:29.844Z,36.99
2022-08-08T18:32:03.241Z,37.00
2022-08-08T18:34:32.970Z,37.09
2022-08-08T18:37:02.536Z,37.22
2022-08-08T18:39:34.205Z,37.35
2022-08-08T18:42:04.976Z,37.54
2022-08-08T18:44:34.768Z,37.75
2022-08-08T18:47:03.694Z,37.85
2022-08-08T18:49:32.443Z,38.15
2022-08-08T18:52:22.327Z,38.15
2022-08-08T18:55:00.087Z,38.35
2022-08-08T18:57:44.686Z,38.41
2022-08-08T19:00:20.183Z,38.52
2022-08-08T19:03:08.038Z,38.90
2022-08-08T19:05:43.975Z,39.01
2022-08-08T19:08:25.156Z,39.21
2022-08-08T19:10:58.566Z,39.34
2022-08-08T19:13:47.356Z,39.32
2022-08-08T19:16:19.001Z,39.37
2022-08-08T19:19:00.231Z,39.48
2022-08-08T19:21:32.891Z,39.55
2022-08-08T19:24:05.402Z,39.56
2022-08-08T19:26:34.481Z,39.72
2022-08-08T19:29:22.252Z,39.83
2022-08-08T19:31:50.680Z,40.10
2022-08-08T19:34:29.889Z,39.94
2022-08-08T19:36:59.227Z,40.04
2022-08-08T19:39:30.885Z,40.16
2022-08-08T19:42:07.146Z,40.20
2022-08-08T19:44:45.460Z,40.28
2022-08-08T19:47:14.495Z,40.48
2022-08-08T19:49:43.088Z,40.70
2022-08-08T19:52:11.843Z,40.73
2022-08-08T19:54:40.087Z,40.78
2022-08-08T19:57:10.496Z,40.89
2022-08-08T19:59:43.417Z,41.04
2022-08-08T20:02:11.292Z,41.49
2022-08-08T20:04:39.617Z,41.34
2022-08-08T20:08:29.642Z,41.38
2022-08-08T20:09:59.125Z,41.49
2022-08-08T20:12:32.039Z,41.70
2022-08-08T20:15:14.906Z,41.98
2022-08-08T20:17:46.304Z,42.47
2022-08-08T20:20:15.925Z,42.52
2022-08-08T20:22:46.755Z,42.65
2022-08-08T20:25:20.483Z,43.01
2022-08-08T20:27:50.243Z,43.14
2022-08-08T20:30:53.309Z,43.39
2022-08-08T20:33:20.193Z,43.58
2022-08-08T20:35:59.035Z,43.98
2022-08-08T20:38:32.538Z,44.14
2022-08-08T20:41:05.657Z,44.16
2022-08-08T20:43:48.341Z,44.56
2022-08-08T20:46:20.763Z,45.12
2022-08-08T20:48:50.530Z,45.22
2022-08-08T20:51:20.795Z,45.28
2022-08-08T20:54:00.622Z,45.54
2022-08-08T20:56:34.625Z,45.67
2022-08-08T20:59:09.023Z,45.75
2022-08-08T21:01:44.184Z,45.97
2022-08-08T21:04:23.492Z,46.18
2022-08-08T21:06:54.059Z,46.28
2022-08-08T21:09:21.583Z,46.18
2022-08-08T21:11:50.723Z,46.36
2022-08-08T21:14:18.791Z,46.46
2022-08-08T21:16:57.066Z,46.71
2022-08-08T21:19:26.121Z,46.69
2022-08-08T21:22:01.546Z,46.82
2022-08-08T21:24:30.570Z,46.94
2022-08-08T21:26:58.583Z,47.04
2022-08-08T21:30:05.299Z,47.16
2022-08-08T21:32:14.352Z,47.44
2022-08-08T21:34:51.292Z,47.61
2022-08-08T21:37:23.271Z,47.73
2022-08-08T21:40:10.594Z,47.91
2022-08-08T21:42:39.446Z,48.09
2022-08-08T21:45:44.671Z,48.23
2022-08-08T21:48:19.593Z,48.54
2022-08-08T21:50:42.143Z,48.65
2022-08-08T21:54:33.713Z,48.73
2022-08-08T21:56:19.396Z,49.00
2022-08-08T21:58:43.384Z,49.21
2022-08-08T22:01:27.964Z,49.54
2022-08-08T22:04:06.435Z,49.60
2022-08-08T22:06:32.896Z,49.57
2022-08-08T22:09:02.760Z,49.77
2022-08-08T22:11:58.774Z,49.86
2022-08-08T22:14:21.994Z,50.11
2022-08-08T22:16:53.413Z,50.38
2022-08-08T22:19:23.634Z,50.45
2022-08-08T22:21:51.515Z,50.52
2022-08-08T22:24:18.076Z,50.62
2022-08-08T22:27:01.423Z,50.97
2022-08-08T22:29:59.126Z,50.94
2022-08-08T22:32:18.117Z,51.17
2022-08-08T22:34:50.560Z,51.44
2022-08-08T22:37:49.019Z,51.79
2022-08-08T22:40:07.315Z,52.06
2022-08-08T22:42:39.783Z,51.91
2022-08-08T22:45:12.948Z,52.16
2022-08-08T22:47:47.190Z,52.37
2022-08-08T22:50:26.917Z,52.35
2022-08-08T22:54:27.944Z,52.49
2022-08-08T22:55:58.416Z,52.65
2022-08-08T22:58:31.230Z,52.74
2022-08-08T23:02:00.589Z,52.88
2022-08-08T23:03:56.719Z,53.09
2022-08-08T23:06:26.416Z,53.19
2022-08-08T23:08:55.965Z,53.19
2022-08-08T23:11:57.995Z,53.38
2022-08-08T23:14:20.490Z,53.49
2022-08-08T23:16:53.287Z,53.62
2022-08-08T23:19:26.527Z,53.70
2022-08-08T23:21:53.143Z,53.77
2022-08-08T23:24:22.906Z,53.82
2022-08-08T23:26:53.470Z,54.01
2022-08-08T23:29:24.539Z,54.13
2022-08-08T23:31:54.297Z,54.07
2022-08-08T23:34:21.938Z,54.16
2022-08-08T23:36:56.611Z,54.43
2022-08-08T23:39:41.508Z,54.57
2022-08-08T23:42:16.165Z,54.66
2022-08-08T23:44:42.766Z,54.61
2022-08-08T23:49:01.630Z,54.71
2022-08-08T23:50:03.078Z,54.83
2022-08-08T23:52:33.882Z,54.92
2022-08-08T23:55:14.318Z,55.03
2022-08-08T23:57:53.158Z,55.26
